createdAt,value
2023-01-13T09:46:44.642Z,0.40
2023-01-13T10:19:31.189Z,0.00
2023-01-13T10:22:55.427Z,0.10
2023-01-13T10:26:08.368Z,0.10
2023-01-13T10:28:37.539Z,0.20
2023-01-13T10:31:14.883Z,0.00
2023-01-13T10:33:42.347Z,0.15
2023-01-13T10:36:21.617Z,0.20
2023-01-13T10:38:50.903Z,0.13
2023-01-13T10:41:26.939Z,0.20
2023-01-13T10:44:14.454Z,0.20
2023-01-13T10:46:59.696Z,0.20
2023-01-13T10:49:38.589Z,0.10
2023-01-13T10:52:30.964Z,0.10
2023-01-13T10:54:58.634Z,0.10
2023-01-13T10:57:28.472Z,0.10
2023-01-13T10:59:56.420Z,0.17
2023-01-13T11:02:34.470Z,0.20
2023-01-13T11:05:24.504Z,0.20
2023-01-13T11:07:54.987Z,0.20
2023-01-13T11:14:03.698Z,0.22
2023-01-13T11:16:52.985Z,0.40
2023-01-13T11:19:25.501Z,0.35
2023-01-13T11:22:00.871Z,0.25
2023-01-13T11:24:55.739Z,0.20
2023-01-13T11:27:53.104Z,0.40
2023-01-13T11:31:21.557Z,0.40
2023-01-13T11:34:08.251Z,0.30
2023-01-13T11:36:57.976Z,0.45
2023-01-13T11:40:06.914Z,0.70
2023-01-13T11:43:28.364Z,0.20
2023-01-13T11:46:01.554Z,0.93
2023-01-13T11:48:36.109Z,0.40
2023-01-13T11:51:54.253Z,0.50
2023-01-13T11:55:06.241Z,0.30
2023-01-13T11:58:20.383Z,0.30
2023-01-13T12:01:34.765Z,0.73
2023-01-13T12:04:23.344Z,0.57
2023-01-13T12:07:40.297Z,0.68
2023-01-13T12:10:53.046Z,0.40
2023-01-13T12:14:28.978Z,0.52
2023-01-13T12:16:56.677Z,0.43
2023-01-13T12:19:31.208Z,0.60
2023-01-13T12:22:29.946Z,0.88
2023-01-13T12:25:14.072Z,1.00
2023-01-13T12:27:53.534Z,1.00
2023-01-13T12:30:52.374Z,0.82
2023-01-13T12:34:00.066Z,0.38
2023-01-13T12:36:59.345Z,0.40
2023-01-13T12:40:19.072Z,1.10
2023-01-13T12:43:38.988Z,0.40
2023-01-13T12:46:21.594Z,0.37
2023-01-13T12:48:59.155Z,0.68
2023-01-13T12:51:51.440Z,0.45
2023-01-13T12:54:30.946Z,0.50
2023-01-13T12:56:59.587Z,0.30
2023-01-13T12:59:26.678Z,0.60
2023-01-13T13:02:12.288Z,0.43
2023-01-13T13:04:56.563Z,0.50
2023-01-13T13:08:07.875Z,0.95
2023-01-13T13:10:58.435Z,0.38
2023-01-13T13:13:49.216Z,0.63
2023-01-13T13:16:25.625Z,0.38
2023-01-13T13:19:18.510Z,0.80
2023-01-13T13:22:14.108Z,0.57
2023-01-13T13:24:44.557Z,0.40
2023-01-13T13:27:37.308Z,0.60
2023-01-13T13:30:20.743Z,0.50
2023-01-13T13:33:55.528Z,0.65
2023-01-13T13:37:07.027Z,0.82
2023-01-13T13:39:53.456Z,0.50
2023-01-13T13:42:54.691Z,0.30
2023-01-13T13:45:46.560Z,0.57
2023-01-13T13:48:31.019Z,0.65
2023-01-13T13:51:20.471Z,0.60
2023-01-13T13:53:49.229Z,0.82
2023-01-13T13:56:27.630Z,0.50
2023-01-13T13:58:55.341Z,0.45
2023-01-13T14:01:36.578Z,0.50
2023-01-13T14:04:22.230Z,0.30
2023-01-13T14:07:16.159Z,0.52
2023-01-13T14:09:56.577Z,0.50
2023-01-13T14:12:27.584Z,0.35
2023-01-13T14:14:57.505Z,0.50
2023-01-13T14:17:29.235Z,0.40
2023-01-13T14:20:10.436Z,0.65
2023-01-13T14:22:37.859Z,0.32
2023-01-13T14:25:40.111Z,0.30
2023-01-13T14:28:13.373Z,0.40
2023-01-13T14:30:42.063Z,0.47
2023-01-13T14:33:21.192Z,0.45
2023-01-13T14:36:33.315Z,0.40
2023-01-13T14:39:03.487Z,0.65
2023-01-13T14:41:36.495Z,0.60
2023-01-13T14:44:27.785Z,0.40
2023-01-13T14:47:00.993Z,0.60
2023-01-13T14:49:58.961Z,0.50
2023-01-13T14:52:34.589Z,0.50
2023-01-13T14:55:09.139Z,0.30
2023-01-13T14:57:41.744Z,0.47
2023-01-13T15:00:15.069Z,0.40
2023-01-13T15:02:57.709Z,0.75
2023-01-13T15:05:29.794Z,0.47
2023-01-13T15:08:35.243Z,0.63
2023-01-13T15:11:08.283Z,0.50
2023-01-13T15:13:53.028Z,0.40
2023-01-13T15:16:29.816Z,0.50
2023-01-13T15:18:57.908Z,0.65
2023-01-13T15:21:25.492Z,0.40
2023-01-13T15:23:53.114Z,0.73
2023-01-13T15:26:30.000Z,0.40
2023-01-13T15:28:59.413Z,0.65
2023-01-13T15:31:28.342Z,0.30
2023-01-13T15:33:56.012Z,0.60
2023-01-13T15:36:30.997Z,0.65
2023-01-13T15:39:00.820Z,0.68
2023-01-13T15:41:47.226Z,0.40
2023-01-13T15:44:35.048Z,0.50
2023-01-13T15:47:09.468Z,0.47
2023-01-13T15:49:42.852Z,0.40
2023-01-13T15:52:36.639Z,0.50
2023-01-13T15:55:04.689Z,0.60
2023-01-13T15:57:37.596Z,0.40
2023-01-13T16:00:22.034Z,0.60
2023-01-13T16:02:50.764Z,1.10
2023-01-13T16:05:18.256Z,0.98
2023-01-13T16:07:45.700Z,1.00
2023-01-13T16:10:27.906Z,0.93
2023-01-13T16:12:58.542Z,0.80
2023-01-13T16:17:59.875Z,1.42
2023-01-13T16:20:28.010Z,1.13
2023-01-13T16:22:55.416Z,1.13
2023-01-13T16:25:27.321Z,0.95
2023-01-13T16:27:54.813Z,1.33
2023-01-13T16:30:37.106Z,0.80
2023-01-13T16:33:04.602Z,0.85
2023-01-13T16:35:32.248Z,1.30
2023-01-13T16:37:59.922Z,1.40
2023-01-13T16:40:35.871Z,0.52
